createdAt,value
2024-03-11T00:00:16.796Z,18.29
2024-03-11T00:00:39.862Z,18.27
2024-03-11T00:01:03.106Z,18.26
2024-03-11T00:01:25.890Z,18.26
2024-03-11T00:01:47.514Z,18.27
2024-03-11T00:02:09.195Z,18.25
2024-03-11T00:02:32.240Z,18.23
2024-03-11T00:02:54.051Z,18.17
2024-03-11T00:03:16.417Z,18.13
2024-03-11T00:03:39.309Z,18.13
2024-03-11T00:04:01.457Z,18.15
2024-03-11T00:04:25.083Z,18.18
2024-03-11T00:04:47.265Z,18.09
2024-03-11T00:05:09.929Z,18.12
2024-03-11T00:05:31.714Z,18.13
2024-03-11T00:05:54.520Z,18.09
2024-03-11T00:06:16.182Z,18.16
2024-03-11T00:06:40.353Z,18.13
2024-03-11T00:07:04.849Z,18.16
2024-03-11T00:07:31.443Z,18.17
2024-03-11T00:07:56.765Z,18.12
2024-03-11T00:08:20.808Z,18.16
2024-03-11T00:08:42.688Z,18.03
2024-03-11T00:09:05.986Z,18.11
2024-03-11T00:09:29.856Z,18.10
2024-03-11T00:09:51.618Z,18.12
2024-03-11T00:10:13.984Z,18.08
2024-03-11T00:10:35.923Z,17.97
2024-03-11T00:11:01.185Z,17.97
2024-03-11T00:11:25.333Z,17.80
2024-03-11T00:11:56.234Z,17.59
2024-03-11T00:12:18.808Z,17.42
2024-03-11T00:12:41.844Z,17.40
2024-03-11T00:13:04.008Z,17.44
2024-03-11T00:13:33.245Z,17.42
2024-03-11T00:13:55.223Z,17.49
2024-03-11T00:14:22.177Z,17.53
2024-03-11T00:14:48.141Z,17.44
2024-03-11T00:15:10.653Z,17.56
2024-03-11T00:15:34.938Z,17.52
2024-03-11T00:15:56.566Z,17.55
2024-03-11T00:16:18.237Z,17.46
2024-03-11T00:16:39.865Z,17.55
2024-03-11T00:17:03.706Z,17.56
2024-03-11T00:17:26.473Z,17.60
2024-03-11T00:17:49.799Z,17.55
2024-03-11T00:18:11.766Z,17.54
2024-03-11T00:18:34.008Z,17.55
2024-03-11T00:18:55.681Z,17.54
2024-03-11T00:19:17.294Z,17.56
2024-03-11T00:19:40.043Z,17.55
2024-03-11T00:20:01.814Z,17.55
2024-03-11T00:20:23.679Z,17.58
2024-03-11T00:20:46.393Z,17.53
2024-03-11T00:21:09.115Z,17.53
2024-03-11T00:21:30.707Z,17.45
2024-03-11T00:21:54.070Z,17.42
2024-03-11T00:22:16.187Z,17.43
2024-03-11T00:22:38.220Z,17.45
2024-03-11T00:22:59.899Z,17.50
2024-03-11T00:23:21.566Z,17.49
2024-03-11T00:23:44.305Z,17.57
2024-03-11T00:24:06.149Z,17.60
2024-03-11T00:24:28.016Z,17.52
2024-03-11T00:24:49.685Z,17.58
2024-03-11T00:25:11.479Z,17.54
2024-03-11T00:25:33.107Z,17.54
2024-03-11T00:25:55.676Z,17.58
2024-03-11T00:26:17.309Z,17.62
2024-03-11T00:26:39.025Z,17.64
2024-03-11T00:27:00.697Z,17.66
2024-03-11T00:27:22.990Z,17.65
2024-03-11T00:27:45.610Z,17.68
2024-03-11T00:28:09.022Z,17.72
2024-03-11T00:28:31.077Z,17.73
2024-03-11T00:28:52.733Z,17.75
2024-03-11T00:29:15.274Z,17.71
2024-03-11T00:29:38.174Z,17.73
2024-03-11T00:30:00.923Z,17.72
2024-03-11T00:30:23.713Z,17.72
2024-03-11T00:30:45.545Z,17.71
2024-03-11T00:31:07.963Z,17.74
2024-03-11T00:31:30.986Z,17.71
2024-03-11T00:31:53.577Z,17.67
2024-03-11T00:32:15.364Z,17.76
2024-03-11T00:32:38.224Z,17.76
2024-03-11T00:33:03.651Z,17.74
2024-03-11T00:33:25.849Z,17.77
2024-03-11T00:33:50.229Z,17.78
2024-03-11T00:34:11.855Z,17.80
2024-03-11T00:34:33.639Z,17.81
2024-03-11T00:34:55.276Z,17.82
2024-03-11T00:35:17.675Z,17.84
2024-03-11T00:35:39.772Z,17.73
2024-03-11T00:36:02.867Z,17.85
2024-03-11T00:36:25.098Z,17.84
2024-03-11T00:36:49.249Z,17.81
2024-03-11T00:37:13.585Z,17.85
2024-03-11T00:37:35.943Z,17.84
2024-03-11T00:37:57.579Z,17.85
2024-03-11T00:38:20.282Z,17.87
2024-03-11T00:38:41.986Z,17.86
2024-03-11T00:39:04.423Z,17.85
2024-03-11T00:39:26.024Z,17.76
2024-03-11T00:39:47.802Z,17.83
2024-03-11T00:40:10.270Z,17.81
2024-03-11T00:40:32.854Z,17.78
2024-03-11T00:40:56.795Z,17.73
2024-03-11T00:41:18.573Z,17.73
2024-03-11T00:41:40.292Z,17.71
2024-03-11T00:42:03.255Z,17.73
2024-03-11T00:42:24.880Z,17.75
2024-03-11T00:42:47.461Z,17.74
2024-03-11T00:43:09.604Z,17.69
2024-03-11T00:43:32.096Z,17.75
2024-03-11T00:43:53.684Z,17.77
2024-03-11T00:44:16.588Z,17.76
2024-03-11T00:44:38.223Z,17.77
2024-03-11T00:45:00.782Z,17.76
2024-03-11T00:45:24.251Z,17.75
2024-03-11T00:45:45.909Z,17.77
2024-03-11T00:46:08.160Z,17.79
2024-03-11T00:46:30.446Z,17.77
2024-03-11T00:46:52.118Z,17.73
2024-03-11T00:47:14.749Z,17.68
2024-03-11T00:47:36.567Z,17.69
2024-03-11T00:47:58.404Z,17.62
2024-03-11T00:48:21.863Z,17.58
2024-03-11T00:48:44.943Z,17.57
2024-03-11T00:49:09.618Z,17.56
2024-03-11T00:49:31.571Z,17.61
2024-03-11T00:49:53.648Z,17.60
2024-03-11T00:50:15.858Z,17.58
2024-03-11T00:50:37.625Z,17.58
2024-03-11T00:51:00.737Z,17.62
2024-03-11T00:51:22.600Z,17.60
2024-03-11T00:51:44.393Z,17.60
2024-03-11T00:52:06.738Z,17.59
2024-03-11T00:52:28.346Z,17.61
2024-03-11T00:52:50.422Z,17.63
2024-03-11T00:53:13.097Z,17.64
2024-03-11T00:53:35.703Z,17.64
2024-03-11T00:53:58.267Z,17.65
2024-03-11T00:54:19.887Z,17.66
2024-03-11T00:54:41.866Z,17.59
2024-03-11T00:55:07.697Z,17.67
2024-03-11T00:55:29.596Z,17.69
2024-03-11T00:55:51.348Z,17.70
2024-03-11T00:56:13.036Z,17.72
2024-03-11T00:56:34.750Z,17.71
2024-03-11T00:56:56.757Z,17.66
2024-03-11T00:57:19.499Z,17.69
2024-03-11T00:57:42.659Z,17.68
2024-03-11T00:58:04.805Z,17.69
2024-03-11T00:58:26.692Z,17.66
2024-03-11T00:58:49.991Z,17.68
2024-03-11T00:59:11.684Z,17.70
2024-03-11T00:59:33.418Z,17.72
2024-03-11T00:59:55.557Z,17.73
2024-03-11T01:00:17.706Z,17.72
2024-03-11T01:00:39.458Z,17.71
2024-03-11T01:01:02.390Z,17.72
2024-03-11T01:01:25.380Z,17.72
2024-03-11T01:01:47.681Z,17.71
2024-03-11T01:02:09.391Z,17.72
2024-03-11T01:02:31.069Z,17.72
2024-03-11T01:02:53.937Z,17.76
2024-03-11T01:03:15.624Z,17.75
2024-03-11T01:03:38.628Z,17.74
2024-03-11T01:04:00.278Z,17.77
2024-03-11T01:04:22.560Z,17.77
2024-03-11T01:04:46.199Z,17.77
2024-03-11T01:05:09.613Z,17.77
2024-03-11T01:05:33.178Z,17.81
2024-03-11T01:05:54.973Z,17.83
2024-03-11T01:06:16.973Z,17.81
2024-03-11T01:06:38.680Z,17.81
2024-03-11T01:07:12.384Z,17.80
2024-03-11T01:07:45.890Z,17.80
2024-03-11T01:08:08.623Z,17.81
2024-03-11T01:08:31.004Z,17.79
2024-03-11T01:08:52.810Z,17.78
2024-03-11T01:09:21.240Z,17.79
2024-03-11T01:09:42.891Z,17.77
2024-03-11T01:10:05.408Z,17.77
2024-03-11T01:10:27.088Z,17.77
2024-03-11T01:10:48.781Z,17.77
2024-03-11T01:11:12.171Z,17.72
2024-03-11T01:11:33.955Z,17.76
2024-03-11T01:11:56.003Z,17.75
2024-03-11T01:12:17.745Z,17.69
2024-03-11T01:12:39.401Z,17.76
2024-03-11T01:13:02.012Z,17.78
2024-03-11T01:13:23.969Z,17.79
2024-03-11T01:13:47.015Z,17.78
2024-03-11T01:14:17.863Z,17.78
2024-03-11T01:14:39.768Z,17.78
2024-03-11T01:15:04.091Z,17.77
2024-03-11T01:15:26.852Z,17.77
2024-03-11T01:15:49.190Z,17.77
2024-03-11T01:16:11.607Z,17.78
2024-03-11T01:16:34.572Z,17.74
2024-03-11T01:16:56.269Z,17.78
2024-03-11T01:17:19.004Z,17.81
2024-03-11T01:17:41.504Z,17.77
2024-03-11T01:18:05.207Z,17.74
2024-03-11T01:19:23.630Z,17.74
2024-03-11T01:19:45.659Z,17.72
2024-03-11T01:20:10.769Z,17.72
2024-03-11T01:20:32.673Z,17.68
2024-03-11T01:20:55.903Z,17.71
2024-03-11T01:21:18.695Z,17.71
2024-03-11T01:21:42.678Z,17.72
2024-03-11T01:22:04.361Z,17.67
2024-03-11T01:22:26.044Z,17.71
2024-03-11T01:22:47.680Z,17.70
2024-03-11T01:23:09.701Z,17.65
2024-03-11T01:23:32.787Z,17.56
2024-03-11T01:23:54.849Z,17.60
2024-03-11T01:24:17.878Z,17.62
2024-03-11T01:24:40.403Z,17.64
2024-03-11T01:25:02.023Z,17.63
2024-03-11T01:25:24.623Z,17.65
2024-03-11T01:25:46.299Z,17.66
2024-03-11T01:26:08.494Z,17.64
2024-03-11T01:26:30.340Z,17.66
2024-03-11T01:26:52.965Z,17.69
2024-03-11T01:27:15.642Z,17.66
2024-03-11T01:27:38.564Z,17.65
2024-03-11T01:28:00.270Z,17.62
2024-03-11T01:28:21.927Z,17.65
2024-03-11T01:28:43.979Z,17.66
2024-03-11T01:29:05.660Z,17.62
2024-03-11T01:29:27.434Z,17.54
2024-03-11T01:29:50.062Z,17.67
2024-03-11T01:30:12.154Z,17.62
2024-03-11T01:30:36.504Z,17.65
2024-03-11T01:30:58.145Z,17.66
2024-03-11T01:31:24.267Z,17.65
2024-03-11T01:31:46.178Z,17.68
2024-03-11T01:32:09.182Z,17.69
2024-03-11T01:32:31.621Z,17.70
2024-03-11T01:32:53.997Z,17.61
2024-03-11T01:33:15.912Z,17.64
2024-03-11T01:33:38.627Z,17.66
2024-03-11T01:34:01.039Z,17.66
2024-03-11T01:34:25.407Z,17.65
2024-03-11T01:34:47.172Z,17.63
2024-03-11T01:35:19.412Z,17.25
2024-03-11T01:35:42.536Z,17.62
2024-03-11T01:36:04.620Z,17.67
2024-03-11T01:36:26.747Z,17.62
2024-03-11T01:36:48.686Z,17.68
2024-03-11T01:37:10.530Z,17.69
2024-03-11T01:37:32.260Z,17.68
2024-03-11T01:37:55.016Z,17.70
2024-03-11T01:38:18.056Z,17.71
2024-03-11T01:38:40.775Z,17.69
2024-03-11T01:39:02.458Z,17.69
2024-03-11T01:39:26.671Z,17.70
2024-03-11T01:39:48.514Z,17.74
2024-03-11T01:40:11.330Z,17.69
2024-03-11T01:40:34.069Z,17.73
2024-03-11T01:40:56.585Z,17.71
2024-03-11T01:41:20.161Z,17.69
2024-03-11T01:41:41.981Z,17.73
2024-03-11T01:42:05.136Z,17.71
2024-03-11T01:42:27.996Z,17.73
2024-03-11T01:42:51.382Z,17.72
2024-03-11T01:43:15.933Z,17.66
2024-03-11T01:43:37.554Z,17.66
2024-03-11T01:43:59.199Z,17.73
2024-03-11T01:44:22.857Z,17.72
2024-03-11T01:44:45.216Z,17.72
2024-03-11T01:45:08.308Z,17.73
2024-03-11T01:45:33.449Z,17.73
2024-03-11T01:45:55.237Z,17.68
2024-03-11T01:46:18.570Z,17.67
2024-03-11T01:46:40.231Z,17.70
2024-03-11T01:47:02.580Z,17.71
2024-03-11T01:47:26.913Z,17.70
2024-03-11T01:47:55.456Z,17.70
2024-03-11T01:48:17.929Z,17.71
2024-03-11T01:48:41.700Z,17.71
2024-03-11T01:49:05.498Z,17.72
2024-03-11T01:49:28.624Z,17.72
2024-03-11T01:49:54.801Z,17.73
2024-03-11T01:50:18.288Z,17.72
2024-03-11T01:50:40.427Z,17.72
2024-03-11T01:51:05.155Z,17.72
2024-03-11T01:51:27.755Z,17.69
2024-03-11T01:51:51.335Z,17.69
2024-03-11T01:52:15.807Z,17.72
2024-03-11T01:52:44.198Z,17.68
2024-03-11T01:53:06.590Z,17.65
2024-03-11T01:53:29.866Z,17.68
2024-03-11T01:53:52.149Z,17.68
2024-03-11T01:54:15.500Z,17.70
2024-03-11T01:54:39.305Z,17.69
2024-03-11T01:55:01.062Z,17.68
2024-03-11T01:55:26.070Z,17.69
2024-03-11T01:55:49.343Z,17.70
2024-03-11T01:56:12.230Z,17.69
2024-03-11T01:56:34.027Z,17.69
2024-03-11T01:56:56.550Z,17.70
2024-03-11T01:57:18.487Z,17.68
2024-03-11T01:57:40.967Z,17.67
2024-03-11T01:58:04.477Z,17.71
2024-03-11T01:58:30.142Z,17.67
2024-03-11T01:58:53.269Z,17.68
2024-03-11T01:59:15.936Z,17.69
2024-03-11T01:59:39.063Z,17.66
2024-03-11T02:00:00.780Z,17.68
2024-03-11T02:00:23.494Z,17.61
2024-03-11T02:00:46.741Z,17.65
2024-03-11T02:01:09.412Z,17.64
2024-03-11T02:01:31.493Z,17.67
2024-03-11T02:01:54.060Z,17.67
2024-03-11T02:02:15.859Z,17.67
2024-03-11T02:02:37.704Z,17.66
2024-03-11T02:02:59.397Z,17.64
2024-03-11T02:03:23.869Z,17.62
2024-03-11T02:03:45.841Z,17.64
2024-03-11T02:04:07.507Z,17.65
2024-03-11T02:04:31.132Z,17.64
2024-03-11T02:04:52.958Z,17.61
2024-03-11T02:05:15.370Z,17.67
2024-03-11T02:05:41.676Z,17.69
2024-03-11T02:06:03.948Z,17.71
2024-03-11T02:06:26.012Z,17.70
2024-03-11T02:06:47.665Z,17.71
2024-03-11T02:07:09.850Z,17.67
2024-03-11T02:07:31.877Z,17.68
2024-03-11T02:07:58.804Z,17.65
2024-03-11T02:08:23.212Z,17.62
2024-03-11T02:08:45.029Z,17.68
2024-03-11T02:09:09.055Z,17.69
2024-03-11T02:09:31.766Z,17.65
2024-03-11T02:09:53.403Z,17.65
2024-03-11T02:10:15.336Z,17.69
2024-03-11T02:10:37.572Z,17.71
2024-03-11T02:10:59.361Z,17.67
2024-03-11T02:11:22.216Z,17.72
2024-03-11T02:11:44.690Z,17.67
2024-03-11T02:12:07.513Z,17.72
2024-03-11T02:12:29.151Z,17.72
2024-03-11T02:12:50.799Z,17.74
2024-03-11T02:13:12.451Z,17.72
2024-03-11T02:13:35.175Z,17.73
2024-03-11T02:13:56.849Z,17.71
2024-03-11T02:14:18.469Z,17.73
2024-03-11T02:14:41.416Z,17.67
2024-03-11T02:15:03.172Z,17.66
2024-03-11T02:15:26.510Z,17.63
2024-03-11T02:15:48.340Z,17.62
2024-03-11T02:16:10.083Z,17.62
2024-03-11T02:16:32.998Z,17.61
2024-03-11T02:16:54.801Z,17.58
2024-03-11T02:17:18.251Z,17.62
2024-03-11T02:17:40.945Z,17.62
2024-03-11T02:18:02.835Z,17.61
2024-03-11T02:18:24.838Z,17.62
2024-03-11T02:18:46.838Z,17.62
2024-03-11T02:19:12.841Z,17.64
2024-03-11T02:19:36.058Z,17.60
2024-03-11T02:19:57.935Z,17.60
2024-03-11T02:20:20.573Z,17.60
2024-03-11T02:20:43.516Z,17.61
2024-03-11T02:21:05.396Z,17.60
2024-03-11T02:21:27.256Z,17.60
2024-03-11T02:21:49.063Z,17.59
2024-03-11T02:22:10.691Z,17.54
2024-03-11T02:22:33.512Z,17.56
2024-03-11T02:22:58.426Z,17.59
2024-03-11T02:23:21.537Z,17.57
2024-03-11T02:23:43.366Z,17.59
2024-03-11T02:24:07.319Z,17.60
2024-03-11T02:24:28.951Z,17.58
2024-03-11T02:24:50.536Z,17.59
2024-03-11T02:25:13.986Z,17.61
2024-03-11T02:25:36.808Z,17.60
2024-03-11T02:25:58.444Z,17.54
2024-03-11T02:26:21.138Z,17.56
2024-03-11T02:26:46.585Z,17.55
2024-03-11T02:27:08.909Z,17.54
2024-03-11T02:27:33.044Z,17.57
2024-03-11T02:27:56.768Z,17.52
2024-03-11T02:28:19.626Z,17.59
2024-03-11T02:28:41.270Z,17.55
2024-03-11T02:29:03.666Z,17.61
2024-03-11T02:29:25.395Z,17.60
2024-03-11T02:29:48.256Z,17.56
2024-03-11T02:30:11.820Z,17.52
2024-03-11T02:30:33.773Z,17.54
2024-03-11T02:30:55.519Z,17.59
2024-03-11T02:31:18.218Z,17.61
2024-03-11T02:31:39.842Z,17.58
2024-03-11T02:32:02.601Z,17.56
2024-03-11T02:32:24.744Z,17.56
2024-03-11T02:32:46.902Z,17.59
2024-03-11T02:33:08.707Z,17.57
2024-03-11T02:33:31.257Z,17.58
2024-03-11T02:33:54.272Z,17.62
2024-03-11T02:34:16.905Z,17.62
2024-03-11T02:34:38.683Z,17.61
2024-03-11T02:35:00.837Z,17.59
2024-03-11T02:35:22.613Z,17.53
2024-03-11T02:35:45.437Z,17.53
2024-03-11T02:36:08.046Z,17.55
2024-03-11T02:36:29.741Z,17.52
2024-03-11T02:36:52.048Z,17.53
2024-03-11T02:37:13.780Z,17.55
2024-03-11T02:37:35.606Z,17.55
2024-03-11T02:37:58.429Z,17.51
2024-03-11T02:38:22.519Z,17.55
2024-03-11T02:38:44.309Z,17.56
2024-03-11T02:39:06.330Z,17.52
2024-03-11T02:39:28.986Z,17.54
2024-03-11T02:39:52.428Z,17.56
2024-03-11T02:40:14.817Z,17.54
2024-03-11T02:40:39.491Z,17.46
2024-03-11T02:41:01.422Z,17.49
2024-03-11T02:41:23.254Z,17.49
2024-03-11T02:41:46.793Z,17.50
2024-03-11T02:42:08.608Z,17.48
2024-03-11T02:42:31.807Z,17.53
2024-03-11T02:42:54.751Z,17.49
2024-03-11T02:43:17.661Z,17.54
2024-03-11T02:43:39.422Z,17.53
2024-03-11T02:44:01.609Z,17.52
2024-03-11T02:44:24.693Z,17.51
2024-03-11T02:44:46.582Z,17.47
2024-03-11T02:45:13.013Z,17.48
2024-03-11T02:45:35.609Z,17.46
2024-03-11T02:45:58.272Z,17.48
2024-03-11T02:46:20.085Z,17.49
2024-03-11T02:46:42.835Z,17.41
2024-03-11T02:47:04.819Z,17.47
2024-03-11T02:47:27.232Z,17.48
2024-03-11T02:47:50.583Z,17.46
2024-03-11T02:48:13.544Z,17.45
2024-03-11T02:48:36.280Z,17.46
2024-03-11T02:48:58.526Z,17.49
2024-03-11T02:49:20.182Z,17.49
2024-03-11T02:49:41.834Z,17.50
2024-03-11T02:50:07.051Z,17.48
2024-03-11T02:50:29.449Z,17.50
2024-03-11T02:50:52.127Z,17.51
2024-03-11T02:51:13.778Z,17.43
2024-03-11T02:51:36.829Z,17.51
2024-03-11T02:52:00.133Z,17.37
2024-03-11T02:52:22.563Z,17.50
2024-03-11T02:52:44.303Z,17.54
2024-03-11T02:53:06.969Z,17.52
2024-03-11T02:53:31.606Z,17.52
2024-03-11T02:53:53.468Z,17.47
2024-03-11T02:54:15.499Z,17.49
2024-03-11T02:54:38.522Z,17.53
2024-03-11T02:55:02.353Z,17.53
2024-03-11T02:55:24.275Z,17.48
2024-03-11T02:55:46.116Z,17.54
2024-03-11T02:56:08.937Z,17.52
2024-03-11T02:56:32.876Z,17.52
2024-03-11T02:56:54.592Z,17.47
2024-03-11T02:57:16.276Z,17.49
2024-03-11T02:57:38.153Z,17.51
2024-03-11T02:57:59.818Z,17.50
2024-03-11T02:58:22.499Z,17.50
2024-03-11T02:58:44.442Z,17.49
2024-03-11T02:59:06.586Z,17.54
2024-03-11T02:59:28.450Z,17.51
2024-03-11T02:59:51.210Z,17.53
2024-03-11T03:00:13.645Z,17.36
2024-03-11T03:00:37.110Z,17.53
2024-03-11T03:00:58.791Z,17.50
2024-03-11T03:01:20.527Z,17.53
2024-03-11T03:01:42.688Z,17.54
2024-03-11T03:02:04.379Z,17.54
2024-03-11T03:02:28.207Z,17.55
2024-03-11T03:02:51.613Z,17.55
2024-03-11T03:03:15.613Z,17.55
2024-03-11T03:03:37.308Z,17.56
2024-03-11T03:03:59.564Z,17.52
2024-03-11T03:04:21.370Z,17.51
2024-03-11T03:04:44.076Z,17.51
2024-03-11T03:05:07.246Z,17.54
2024-03-11T03:05:28.989Z,17.51
2024-03-11T03:05:50.820Z,17.51
2024-03-11T03:06:12.685Z,17.45
2024-03-11T03:06:35.392Z,17.52
2024-03-11T03:06:59.049Z,17.50
2024-03-11T03:07:20.712Z,17.50
2024-03-11T03:07:42.383Z,17.48
2024-03-11T03:08:05.874Z,17.49
2024-03-11T03:08:27.574Z,17.47
2024-03-11T03:08:50.877Z,17.50
2024-03-11T03:09:12.893Z,17.50
2024-03-11T03:09:34.824Z,17.49
2024-03-11T03:09:56.580Z,17.52
2024-03-11T03:10:19.252Z,17.51
2024-03-11T03:10:41.051Z,17.51
2024-03-11T03:11:04.360Z,17.53
2024-03-11T03:11:26.708Z,17.54
2024-03-11T03:11:48.620Z,17.53
2024-03-11T03:12:12.247Z,17.52
2024-03-11T03:12:33.996Z,17.55
2024-03-11T03:12:55.705Z,17.56
2024-03-11T03:13:17.421Z,17.57
2024-03-11T03:13:39.332Z,17.56
2024-03-11T03:14:03.043Z,17.57
2024-03-11T03:14:24.829Z,17.56
2024-03-11T03:14:46.620Z,17.51
2024-03-11T03:15:09.664Z,17.55
2024-03-11T03:15:31.558Z,17.53
2024-03-11T03:15:54.260Z,17.52
2024-03-11T03:16:16.999Z,17.50
2024-03-11T03:16:38.737Z,17.44
2024-03-11T03:17:00.470Z,17.48
2024-03-11T03:17:22.247Z,17.49
2024-03-11T03:17:44.704Z,17.42
2024-03-11T03:18:08.061Z,17.49
2024-03-11T03:18:29.971Z,17.44
2024-03-11T03:18:51.657Z,17.44
2024-03-11T03:19:13.401Z,17.43
2024-03-11T03:19:35.790Z,17.41
2024-03-11T03:19:57.568Z,17.45
2024-03-11T03:20:21.300Z,17.43
2024-03-11T03:20:43.108Z,17.40
2024-03-11T03:21:07.344Z,17.41
2024-03-11T03:21:29.043Z,17.42
2024-03-11T03:21:50.860Z,17.43
2024-03-11T03:22:12.567Z,17.43
2024-03-11T03:22:35.274Z,17.43
2024-03-11T03:22:57.437Z,17.44
2024-03-11T03:23:19.277Z,17.42
2024-03-11T03:23:41.183Z,17.41
2024-03-11T03:24:04.493Z,17.43
2024-03-11T03:24:26.204Z,17.44
2024-03-11T03:24:51.061Z,17.43
2024-03-11T03:25:14.136Z,17.43
2024-03-11T03:25:35.901Z,17.45
2024-03-11T03:25:57.645Z,17.44
2024-03-11T03:26:21.020Z,17.46
2024-03-11T03:26:42.836Z,17.47
2024-03-11T03:27:04.805Z,17.48
2024-03-11T03:27:26.918Z,17.48
2024-03-11T03:27:48.614Z,17.48
2024-03-11T03:28:10.467Z,17.44
2024-03-11T03:28:33.288Z,17.44
2024-03-11T03:28:54.975Z,17.42
2024-03-11T03:29:16.861Z,17.43
2024-03-11T03:29:41.189Z,17.42
2024-03-11T03:30:04.248Z,17.40
2024-03-11T03:30:27.680Z,17.35
2024-03-11T03:30:49.914Z,17.37
2024-03-11T03:31:12.336Z,17.36
2024-03-11T03:31:34.044Z,17.36
2024-03-11T03:31:56.582Z,17.36
2024-03-11T03:32:20.793Z,17.37
2024-03-11T03:32:43.599Z,17.37
2024-03-11T03:33:06.300Z,17.37
2024-03-11T03:33:28.955Z,17.37
2024-03-11T03:33:51.160Z,17.38
2024-03-11T03:34:14.257Z,17.37
2024-03-11T03:34:35.957Z,17.35
2024-03-11T03:34:57.620Z,17.35
2024-03-11T03:35:19.364Z,17.35
2024-03-11T03:35:41.061Z,17.36
2024-03-11T03:36:04.471Z,17.38
2024-03-11T03:36:26.257Z,17.38
2024-03-11T03:36:48.147Z,17.36
2024-03-11T03:37:10.328Z,17.36
2024-03-11T03:37:32.063Z,17.37
2024-03-11T03:37:56.713Z,17.38
2024-03-11T03:38:18.459Z,17.39
2024-03-11T03:38:40.156Z,17.38
2024-03-11T03:39:01.912Z,17.37
2024-03-11T03:39:25.620Z,17.38
2024-03-11T03:39:48.713Z,17.38
2024-03-11T03:40:17.455Z,17.37
2024-03-11T03:40:39.737Z,17.36
2024-03-11T03:41:01.450Z,17.36
2024-03-11T03:41:23.304Z,17.30
2024-03-11T03:41:46.262Z,17.33
2024-03-11T03:42:08.107Z,17.37
2024-03-11T03:42:29.813Z,17.36
2024-03-11T03:42:52.004Z,17.37
2024-03-11T03:43:14.669Z,17.35
2024-03-11T03:43:36.396Z,17.38
2024-03-11T03:43:58.297Z,17.38
2024-03-11T03:44:20.043Z,17.37
2024-03-11T03:44:41.985Z,17.36
2024-03-11T03:45:04.342Z,17.36
2024-03-11T03:45:28.572Z,17.35
2024-03-11T03:45:50.500Z,17.34
2024-03-11T03:46:12.262Z,17.38
2024-03-11T03:46:33.964Z,17.37
2024-03-11T03:46:56.571Z,17.38
2024-03-11T03:47:19.341Z,17.33
2024-03-11T03:47:41.887Z,17.32
2024-03-11T03:48:04.148Z,17.33
2024-03-11T03:48:26.588Z,17.33
2024-03-11T03:48:49.860Z,17.34
2024-03-11T03:49:11.540Z,17.33
2024-03-11T03:49:34.218Z,17.33
2024-03-11T03:49:55.954Z,17.34
2024-03-11T03:50:19.005Z,17.32
2024-03-11T03:50:40.875Z,17.34
2024-03-11T03:51:04.712Z,17.33
2024-03-11T03:51:27.731Z,17.31
2024-03-11T03:51:49.512Z,17.31
2024-03-11T03:52:11.160Z,17.34
2024-03-11T03:52:32.875Z,17.35
2024-03-11T03:52:54.576Z,17.36
2024-03-11T03:53:16.316Z,17.38
2024-03-11T03:53:39.071Z,17.36
2024-03-11T03:54:01.750Z,17.40
2024-03-11T03:54:25.055Z,17.39
2024-03-11T03:54:46.914Z,17.41
2024-03-11T03:55:09.767Z,17.40
2024-03-11T03:55:32.545Z,17.42
2024-03-11T03:55:54.392Z,17.34
2024-03-11T03:56:16.549Z,17.39
2024-03-11T03:56:39.788Z,17.37
2024-03-11T03:57:01.628Z,17.37
2024-03-11T03:57:23.481Z,17.38
2024-03-11T03:57:46.656Z,17.38
2024-03-11T03:58:08.892Z,17.40
2024-03-11T03:58:34.014Z,17.38
2024-03-11T03:58:56.673Z,17.37
2024-03-11T03:59:18.402Z,17.32
2024-03-11T03:59:40.752Z,17.34
2024-03-11T04:00:02.424Z,17.31
2024-03-11T04:00:29.958Z,17.31
2024-03-11T04:00:51.585Z,17.31
2024-03-11T04:01:13.360Z,17.36
2024-03-11T04:01:35.053Z,17.32
2024-03-11T04:01:56.768Z,17.31
2024-03-11T04:02:18.402Z,17.28
2024-03-11T04:02:41.129Z,17.28
2024-03-11T04:03:04.261Z,17.25
2024-03-11T04:03:28.143Z,17.23
2024-03-11T04:03:49.783Z,17.23
2024-03-11T04:04:12.432Z,17.24
2024-03-11T04:04:34.076Z,17.22
2024-03-11T04:04:55.711Z,17.24
2024-03-11T04:05:19.606Z,17.24
2024-03-11T04:05:41.487Z,17.27
2024-03-11T04:06:06.109Z,17.27
2024-03-11T04:06:27.731Z,17.30
2024-03-11T04:06:50.391Z,17.30
2024-03-11T04:07:12.012Z,17.31
2024-03-11T04:07:33.729Z,17.27
2024-03-11T04:07:56.683Z,17.22
2024-03-11T04:08:18.971Z,17.14
2024-03-11T04:08:40.876Z,17.09
2024-03-11T04:09:03.499Z,16.97
2024-03-11T04:09:26.500Z,16.90
2024-03-11T04:09:48.132Z,16.89
2024-03-11T04:10:14.275Z,16.91
2024-03-11T04:10:36.155Z,16.90
2024-03-11T04:10:59.307Z,16.84
2024-03-11T04:11:21.832Z,16.86
2024-03-11T04:11:43.764Z,16.80
2024-03-11T04:12:07.516Z,16.76
2024-03-11T04:12:29.351Z,16.73
2024-03-11T04:12:53.914Z,16.75
2024-03-11T04:13:16.535Z,16.82
2024-03-11T04:13:40.900Z,16.85
2024-03-11T04:14:03.318Z,16.85
2024-03-11T04:14:25.212Z,16.85
2024-03-11T04:14:47.100Z,16.87
2024-03-11T04:15:13.826Z,16.90
2024-03-11T04:15:38.056Z,16.86
2024-03-11T04:15:59.761Z,16.87
2024-03-11T04:16:21.754Z,16.86
2024-03-11T04:16:43.598Z,16.85
2024-03-11T04:17:07.279Z,16.87
2024-03-11T04:17:29.098Z,16.84
2024-03-11T04:17:54.655Z,16.82
2024-03-11T04:18:17.815Z,16.81
2024-03-11T04:18:39.547Z,16.85
2024-03-11T04:19:01.526Z,16.88
2024-03-11T04:19:26.219Z,16.90
2024-03-11T04:19:49.108Z,16.91
2024-03-11T04:20:13.147Z,16.93
2024-03-11T04:20:35.394Z,16.94
2024-03-11T04:20:57.434Z,16.96
2024-03-11T04:21:19.161Z,16.95
2024-03-11T04:21:41.845Z,16.97
2024-03-11T04:22:04.334Z,16.87
2024-03-11T04:22:26.022Z,16.81
2024-03-11T04:22:50.612Z,16.75
2024-03-11T04:23:13.258Z,16.76
2024-03-11T04:23:35.190Z,16.76
2024-03-11T04:24:00.362Z,16.74
2024-03-11T04:24:22.685Z,16.76
2024-03-11T04:24:45.753Z,16.76
2024-03-11T04:25:09.043Z,16.77
2024-03-11T04:25:32.335Z,16.82
2024-03-11T04:25:54.123Z,16.86
2024-03-11T04:26:17.770Z,16.87
2024-03-11T04:26:39.869Z,16.84
2024-03-11T04:27:01.697Z,16.80
2024-03-11T04:27:23.873Z,16.63
2024-03-11T04:27:47.075Z,16.57
2024-03-11T04:28:10.088Z,16.50
2024-03-11T04:28:31.798Z,16.51
2024-03-11T04:28:53.513Z,16.48
2024-03-11T04:29:16.489Z,16.43
2024-03-11T04:29:38.331Z,16.43
2024-03-11T04:30:00.556Z,16.51
2024-03-11T04:30:27.696Z,16.54
2024-03-11T04:30:49.381Z,16.64
2024-03-11T04:31:11.236Z,16.67
2024-03-11T04:31:34.176Z,16.70
2024-03-11T04:31:57.624Z,16.71
2024-03-11T04:32:20.358Z,16.72
2024-03-11T04:32:42.335Z,16.72
2024-03-11T04:33:04.524Z,16.71
2024-03-11T04:33:26.451Z,16.79
2024-03-11T04:33:48.118Z,16.81
2024-03-11T04:34:11.671Z,16.84
2024-03-11T04:34:33.985Z,16.88
2024-03-11T04:34:55.604Z,16.84
2024-03-11T04:35:18.053Z,16.86
2024-03-11T04:35:41.770Z,16.85
2024-03-11T04:36:05.083Z,16.84
2024-03-11T04:36:27.006Z,16.89
2024-03-11T04:36:49.844Z,16.78
2024-03-11T04:37:11.548Z,16.76
2024-03-11T04:37:33.440Z,16.66
2024-03-11T04:37:56.847Z,16.72
2024-03-11T04:38:19.417Z,16.71
2024-03-11T04:38:42.339Z,16.58
2024-03-11T04:39:06.138Z,16.50
2024-03-11T04:39:29.013Z,16.55
2024-03-11T04:39:52.044Z,16.43
2024-03-11T04:40:13.752Z,16.52
2024-03-11T04:40:37.011Z,16.58
2024-03-11T04:40:59.695Z,16.66
2024-03-11T04:41:21.484Z,16.69
2024-03-11T04:41:43.763Z,16.71
2024-03-11T04:42:06.133Z,16.75
2024-03-11T04:42:27.774Z,16.79
2024-03-11T04:42:49.638Z,16.77
2024-03-11T04:43:12.990Z,16.84
2024-03-11T04:43:37.548Z,16.88
2024-03-11T04:43:59.421Z,16.90
2024-03-11T04:44:21.037Z,16.93
2024-03-11T04:44:42.769Z,16.94
2024-03-11T04:45:06.640Z,16.90
2024-03-11T04:45:29.127Z,16.93
2024-03-11T04:45:50.786Z,16.94
2024-03-11T04:46:12.448Z,16.96
2024-03-11T04:46:34.085Z,16.95
2024-03-11T04:46:55.794Z,16.92
2024-03-11T04:47:19.432Z,17.00
2024-03-11T04:47:41.229Z,16.99
2024-03-11T04:48:03.420Z,16.93
2024-03-11T04:48:25.385Z,16.95
2024-03-11T04:48:47.762Z,16.89
2024-03-11T04:49:10.457Z,16.87
2024-03-11T04:49:32.085Z,16.80
2024-03-11T04:49:53.729Z,16.72
2024-03-11T04:50:22.121Z,16.64
2024-03-11T04:50:44.638Z,16.64
2024-03-11T04:51:07.864Z,16.68
2024-03-11T04:51:29.677Z,16.68
2024-03-11T04:51:51.648Z,16.71
2024-03-11T04:52:13.379Z,16.72
2024-03-11T04:52:35.006Z,16.76
2024-03-11T04:52:59.122Z,16.68